Impacts METAR Board
IDs:

KPNS - Pensacola Intl, FL, US

Updated at: 1300 UTC 21 May 2018
Potential Impact None Slight Moderate High
Time 21/01Z 21/02Z 21/03Z 21/04Z 21/05Z 21/06Z 21/07Z 21/08Z 21/09Z 21/10Z 21/11Z 21/12Z 21/13Z
Temp80 77 77 76 75 75 73 73 72 72 71 71 72
Dewpt70 69 69 69 70 70 69 68 67 67 66 66 66
Altim30.02 30.03 30.07 30.07 30.06 30.05 30.02 30.00 30.01 30.01 30.03 30.04 30.04
VIS10 10 10 10 10 10 10 10 10 10 10 10 10
CIG-- -- 45 -- -- 20 -- -- 17 22 22 33 8
CoverSCTCLRBKNSCTSCTBKNFEWCLROVCBKNOVCOVCBKN
FltCatVFRVFRVFRVFRVFRMVFRVFRVFRMVFRMVFRMVFRVFRIFR
WX--------------------------
WDir1501409090907080807060504060
WSpd7 7 6 6 4 5 4 4 5 4 5 4 5
WGst-- -- -- -- -- -- -- -- -- -- -- -- --
Raw hourly METARs
KPNS 210053Z 15007KT 10SM FEW045 SCT065 SCT080 27/21 A3002 RMK AO2 LTG DSNT S SLP166 T02670211
KPNS 210153Z 14007KT 10SM CLR 25/21 A3003 RMK AO2 SLP170 T02500206
KPNS 210253Z 09006KT 10SM SCT016 BKN045 25/21 A3007 RMK AO2 SLP183 T02500206 53015
KPNS 210353Z 09006KT 10SM SCT095 24/21 A3007 RMK AO2 SLP185 T02440206
KPNS 210453Z 09004KT 10SM FEW020 SCT085 24/21 A3006 RMK AO2 LTG DSNT SE AND SW SLP181 T02390211
KPNS 210553Z 07005KT 10SM SCT015 BKN020 BKN027 24/21 A3005 RMK AO2 SLP178 T02390211 10267 20239 403170228 58006
KPNS 210653Z 08004KT 10SM FEW026 23/21 A3002 RMK AO2 SLP166 T02280206
KPNS 210753Z 08004KT 10SM CLR 23/20 A3000 RMK AO2 SLP160 T02280200
KPNS 210853Z 07005KT 10SM OVC017 22/19 A3001 RMK AO2 SLP163 T02220194 55015
KPNS 210953Z 06004KT 10SM BKN022 22/19 A3001 RMK AO2 SLP163 T02220194
KPNS 211053Z 05005KT 10SM OVC022 22/19 A3003 RMK AO2 SLP169 T02170189
KPNS 211153Z 04004KT 10SM OVC033 22/19 A3004 RMK AO2 SLP173 T02170189 10239 20217 53010
KPNS 211253Z 06005KT 10SM BKN008 22/19 A3004 RMK AO2 SLP174 T02220189



Page loaded:  13:11 UTC  |   06:11 AM Pacific  |   07:11 AM Mountain  |   08:11 AM Central  |   09:11 AM Eastern

 

ADVISORIES

FORECASTS

FORECASTS

OBSERVATIONS

USER TOOLS

ABOUT US